sensor_id;sensor_type;location;lat;lon;timestamp;P1;durP1;ratioP1;P2;durP2;ratioP2
43457;SDS011;29046;54.184;18.680;2023-03-01T00:01:15;10.23;;;6.28;;
43457;SDS011;29046;54.184;18.680;2023-03-01T00:03:45;12.95;;;7.72;;
43457;SDS011;29046;54.184;18.680;2023-03-01T00:06:12;14.18;;;7.40;;
43457;SDS011;29046;54.184;18.680;2023-03-01T00:08:39;13.73;;;7.72;;
43457;SDS011;29046;54.184;18.680;2023-03-01T00:13:37;13.32;;;7.95;;
43457;SDS011;29046;54.184;18.680;2023-03-01T00:16:10;14.93;;;9.35;;
43457;SDS011;29046;54.184;18.680;2023-03-01T00:18:39;15.13;;;8.45;;
43457;SDS011;29046;54.184;18.680;2023-03-01T00:21:07;26.20;;;13.95;;
43457;SDS011;29046;54.184;18.680;2023-03-01T00:23:34;15.05;;;9.07;;
43457;SDS011;29046;54.184;18.680;2023-03-01T00:26:05;12.02;;;7.85;;
43457;SDS011;29046;54.184;18.680;2023-03-01T00:28:33;15.85;;;6.88;;
43457;SDS011;29046;54.184;18.680;2023-03-01T00:31:09;11.10;;;8.13;;
43457;SDS011;29046;54.184;18.680;2023-03-01T00:33:38;12.50;;;7.75;;
43457;SDS011;29046;54.184;18.680;2023-03-01T00:36:06;13.18;;;8.57;;
43457;SDS011;29046;54.184;18.680;2023-03-01T00:38:34;14.00;;;8.13;;
43457;SDS011;29046;54.184;18.680;2023-03-01T00:41:04;14.95;;;7.93;;
43457;SDS011;29046;54.184;18.680;2023-03-01T00:43:32;16.48;;;9.70;;
43457;SDS011;29046;54.184;18.680;2023-03-01T00:46:04;17.55;;;9.75;;
43457;SDS011;29046;54.184;18.680;2023-03-01T00:48:32;12.00;;;8.15;;
43457;SDS011;29046;54.184;18.680;2023-03-01T00:51:08;15.52;;;9.85;;
43457;SDS011;29046;54.184;18.680;2023-03-01T00:53:39;12.38;;;8.55;;
43457;SDS011;29046;54.184;18.680;2023-03-01T00:56:07;14.38;;;9.05;;
43457;SDS011;29046;54.184;18.680;2023-03-01T00:58:36;18.67;;;11.82;;
43457;SDS011;29046;54.184;18.680;2023-03-01T01:01:23;15.75;;;9.88;;
43457;SDS011;29046;54.184;18.680;2023-03-01T01:03:55;13.18;;;9.05;;
43457;SDS011;29046;54.184;18.680;2023-03-01T01:06:32;14.68;;;9.73;;
43457;SDS011;29046;54.184;18.680;2023-03-01T01:09:11;15.55;;;9.32;;
43457;SDS011;29046;54.184;18.680;2023-03-01T01:11:44;15.98;;;8.60;;
43457;SDS011;29046;54.184;18.680;2023-03-01T01:14:13;16.55;;;8.90;;
43457;SDS011;29046;54.184;18.680;2023-03-01T01:16:40;16.23;;;10.02;;
43457;SDS011;29046;54.184;18.680;2023-03-01T01:19:07;18.35;;;10.35;;
43457;SDS011;29046;54.184;18.680;2023-03-01T01:21:37;18.88;;;10.43;;
43457;SDS011;29046;54.184;18.680;2023-03-01T01:24:04;14.85;;;9.73;;
43457;SDS011;29046;54.184;18.680;2023-03-01T01:26:32;16.73;;;9.30;;
43457;SDS011;29046;54.184;18.680;2023-03-01T01:29:00;17.63;;;10.57;;
43457;SDS011;29046;54.184;18.680;2023-03-01T01:31:29;17.98;;;9.43;;
43457;SDS011;29046;54.184;18.680;2023-03-01T01:33:57;16.92;;;9.77;;
43457;SDS011;29046;54.184;18.680;2023-03-01T01:36:25;17.73;;;9.35;;
43457;SDS011;29046;54.184;18.680;2023-03-01T01:38:52;13.20;;;9.20;;
43457;SDS011;29046;54.184;18.680;2023-03-01T01:41:20;20.98;;;11.68;;
43457;SDS011;29046;54.184;18.680;2023-03-01T01:43:49;22.88;;;13.85;;
43457;SDS011;29046;54.184;18.680;2023-03-01T01:46:47;32.95;;;20.00;;
43457;SDS011;29046;54.184;18.680;2023-03-01T01:51:46;25.17;;;16.95;;
43457;SDS011;29046;54.184;18.680;2023-03-01T01:54:16;26.42;;;15.63;;
43457;SDS011;29046;54.184;18.680;2023-03-01T01:56:55;31.52;;;17.10;;
43457;SDS011;29046;54.184;18.680;2023-03-01T01:59:24;56.28;;;27.73;;
43457;SDS011;29046;54.184;18.680;2023-03-01T02:01:54;70.90;;;34.47;;
43457;SDS011;29046;54.184;18.680;2023-03-01T02:04:21;66.30;;;31.52;;
43457;SDS011;29046;54.184;18.680;2023-03-01T02:06:51;49.40;;;25.40;;
43457;SDS011;29046;54.184;18.680;2023-03-01T02:09:23;46.78;;;24.38;;
43457;SDS011;29046;54.184;18.680;2023-03-01T02:11:51;62.13;;;31.80;;
43457;SDS011;29046;54.184;18.680;2023-03-01T02:14:19;68.15;;;33.65;;
43457;SDS011;29046;54.184;18.680;2023-03-01T02:16:47;48.63;;;26.48;;
43457;SDS011;29046;54.184;18.680;2023-03-01T02:19:32;43.30;;;22.02;;
43457;SDS011;29046;54.184;18.680;2023-03-01T02:22:15;42.85;;;19.58;;
43457;SDS011;29046;54.184;18.680;2023-03-01T02:25:04;35.33;;;19.90;;
43457;SDS011;29046;54.184;18.680;2023-03-01T02:27:42;34.55;;;19.05;;
43457;SDS011;29046;54.184;18.680;2023-03-01T02:30:24;40.60;;;20.65;;
43457;SDS011;29046;54.184;18.680;2023-03-01T02:32:54;51.83;;;25.98;;
43457;SDS011;29046;54.184;18.680;2023-03-01T02:35:32;50.75;;;26.25;;
43457;SDS011;29046;54.184;18.680;2023-03-01T02:38:06;41.45;;;22.52;;
43457;SDS011;29046;54.184;18.680;2023-03-01T02:40:35;32.05;;;17.38;;
43457;SDS011;29046;54.184;18.680;2023-03-01T02:43:04;37.13;;;17.75;;
43457;SDS011;29046;54.184;18.680;2023-03-01T02:45:36;17.42;;;11.45;;
43457;SDS011;29046;54.184;18.680;2023-03-01T02:48:03;27.90;;;14.55;;
43457;SDS011;29046;54.184;18.680;2023-03-01T02:50:39;30.70;;;17.95;;
43457;SDS011;29046;54.184;18.680;2023-03-01T02:53:21;24.25;;;14.60;;
43457;SDS011;29046;54.184;18.680;2023-03-01T02:55:55;19.70;;;11.48;;
43457;SDS011;29046;54.184;18.680;2023-03-01T02:58:22;17.60;;;9.10;;
43457;SDS011;29046;54.184;18.680;2023-03-01T03:00:49;18.42;;;10.38;;
43457;SDS011;29046;54.184;18.680;2023-03-01T03:03:19;24.83;;;13.23;;
43457;SDS011;29046;54.184;18.680;2023-03-01T03:05:47;26.80;;;14.13;;
43457;SDS011;29046;54.184;18.680;2023-03-01T03:08:15;21.77;;;13.07;;
43457;SDS011;29046;54.184;18.680;2023-03-01T03:10:50;26.05;;;14.15;;
43457;SDS011;29046;54.184;18.680;2023-03-01T03:13:18;24.30;;;14.45;;
43457;SDS011;29046;54.184;18.680;2023-03-01T03:15:45;26.50;;;14.73;;
43457;SDS011;29046;54.184;18.680;2023-03-01T03:18:17;18.80;;;10.98;;
43457;SDS011;29046;54.184;18.680;2023-03-01T03:20:45;17.65;;;10.55;;
43457;SDS011;29046;54.184;18.680;2023-03-01T03:23:12;16.00;;;10.18;;
43457;SDS011;29046;54.184;18.680;2023-03-01T03:25:39;17.13;;;11.15;;
43457;SDS011;29046;54.184;18.680;2023-03-01T03:28:07;20.13;;;11.95;;
43457;SDS011;29046;54.184;18.680;2023-03-01T03:30:37;16.75;;;10.88;;
43457;SDS011;29046;54.184;18.680;2023-03-01T03:33:06;15.98;;;9.68;;
43457;SDS011;29046;54.184;18.680;2023-03-01T03:35:37;13.98;;;9.13;;
43457;SDS011;29046;54.184;18.680;2023-03-01T03:38:07;17.80;;;9.48;;
43457;SDS011;29046;54.184;18.680;2023-03-01T03:40:43;23.02;;;12.52;;
43457;SDS011;29046;54.184;18.680;2023-03-01T03:43:13;23.17;;;13.07;;
43457;SDS011;29046;54.184;18.680;2023-03-01T03:45:45;33.10;;;17.10;;
43457;SDS011;29046;54.184;18.680;2023-03-01T03:48:15;25.77;;;14.27;;
43457;SDS011;29046;54.184;18.680;2023-03-01T03:50:46;19.67;;;11.57;;
43457;SDS011;29046;54.184;18.680;2023-03-01T03:53:14;21.13;;;11.25;;
43457;SDS011;29046;54.184;18.680;2023-03-01T03:55:42;23.02;;;13.30;;
43457;SDS011;29046;54.184;18.680;2023-03-01T03:58:11;19.42;;;10.48;;
43457;SDS011;29046;54.184;18.680;2023-03-01T04:00:39;21.25;;;11.27;;
43457;SDS011;29046;54.184;18.680;2023-03-01T04:03:08;19.27;;;11.85;;
43457;SDS011;29046;54.184;18.680;2023-03-01T04:05:37;18.30;;;9.98;;
43457;SDS011;29046;54.184;18.680;2023-03-01T04:08:05;16.80;;;10.10;;
43457;SDS011;29046;54.184;18.680;2023-03-01T04:10:34;18.35;;;11.50;;
43457;SDS011;29046;54.184;18.680;2023-03-01T04:13:05;23.80;;;16.33;;
43457;SDS011;29046;54.184;18.680;2023-03-01T04:15:33;20.15;;;12.90;;
43457;SDS011;29046;54.184;18.680;2023-03-01T04:18:01;14.70;;;10.88;;
43457;SDS011;29046;54.184;18.680;2023-03-01T04:20:30;14.40;;;10.57;;
43457;SDS011;29046;54.184;18.680;2023-03-01T04:23:02;15.25;;;10.10;;
43457;SDS011;29046;54.184;18.680;2023-03-01T04:28:23;21.40;;;11.13;;
43457;SDS011;29046;54.184;18.680;2023-03-01T04:30:53;18.45;;;10.93;;
43457;SDS011;29046;54.184;18.680;2023-03-01T04:33:22;22.30;;;12.45;;
43457;SDS011;29046;54.184;18.680;2023-03-01T04:35:50;18.45;;;11.73;;
43457;SDS011;29046;54.184;18.680;2023-03-01T04:38:18;22.67;;;11.82;;
43457;SDS011;29046;54.184;18.680;2023-03-01T04:40:46;17.35;;;11.15;;
43457;SDS011;29046;54.184;18.680;2023-03-01T04:43:14;19.25;;;10.20;;
43457;SDS011;29046;54.184;18.680;2023-03-01T04:45:41;19.05;;;9.80;;
43457;SDS011;29046;54.184;18.680;2023-03-01T04:48:08;16.63;;;11.13;;
43457;SDS011;29046;54.184;18.680;2023-03-01T04:50:35;30.95;;;18.90;;
43457;SDS011;29046;54.184;18.680;2023-03-01T04:53:03;21.88;;;14.75;;
43457;SDS011;29046;54.184;18.680;2023-03-01T04:55:30;22.60;;;10.88;;
43457;SDS011;29046;54.184;18.680;2023-03-01T04:57:58;17.65;;;10.77;;
43457;SDS011;29046;54.184;18.680;2023-03-01T05:00:25;21.13;;;15.95;;
43457;SDS011;29046;54.184;18.680;2023-03-01T05:02:54;40.78;;;30.40;;
43457;SDS011;29046;54.184;18.680;2023-03-01T05:07:56;33.00;;;22.92;;
43457;SDS011;29046;54.184;18.680;2023-03-01T05:10:25;22.13;;;14.73;;
43457;SDS011;29046;54.184;18.680;2023-03-01T05:12:53;20.25;;;12.77;;
43457;SDS011;29046;54.184;18.680;2023-03-01T05:15:20;20.48;;;14.55;;
43457;SDS011;29046;54.184;18.680;2023-03-01T05:17:48;22.90;;;15.68;;
43457;SDS011;29046;54.184;18.680;2023-03-01T05:20:16;20.88;;;13.95;;
43457;SDS011;29046;54.184;18.680;2023-03-01T05:22:43;26.48;;;16.05;;
43457;SDS011;29046;54.184;18.680;2023-03-01T05:25:11;20.85;;;14.45;;
43457;SDS011;29046;54.184;18.680;2023-03-01T05:27:40;24.05;;;13.50;;
43457;SDS011;29046;54.184;18.680;2023-03-01T05:30:08;23.88;;;13.27;;
43457;SDS011;29046;54.184;18.680;2023-03-01T05:32:42;24.45;;;13.65;;
43457;SDS011;29046;54.184;18.680;2023-03-01T05:35:14;21.73;;;12.38;;
43457;SDS011;29046;54.184;18.680;2023-03-01T05:37:44;18.30;;;11.77;;
43457;SDS011;29046;54.184;18.680;2023-03-01T05:40:16;21.00;;;12.05;;
43457;SDS011;29046;54.184;18.680;2023-03-01T05:42:47;24.40;;;12.82;;
43457;SDS011;29046;54.184;18.680;2023-03-01T05:45:16;27.98;;;16.77;;
43457;SDS011;29046;54.184;18.680;2023-03-01T05:47:45;26.15;;;14.40;;
43457;SDS011;29046;54.184;18.680;2023-03-01T05:50:13;22.67;;;12.70;;
43457;SDS011;29046;54.184;18.680;2023-03-01T05:52:48;22.48;;;12.80;;
43457;SDS011;29046;54.184;18.680;2023-03-01T05:55:17;23.65;;;13.55;;
43457;SDS011;29046;54.184;18.680;2023-03-01T05:57:46;25.13;;;12.88;;
43457;SDS011;29046;54.184;18.680;2023-03-01T06:00:15;21.05;;;12.57;;
43457;SDS011;29046;54.184;18.680;2023-03-01T06:02:44;22.63;;;13.00;;
43457;SDS011;29046;54.184;18.680;2023-03-01T06:05:12;19.33;;;12.05;;
43457;SDS011;29046;54.184;18.680;2023-03-01T06:07:41;23.27;;;13.25;;
43457;SDS011;29046;54.184;18.680;2023-03-01T06:10:08;22.30;;;11.60;;
43457;SDS011;29046;54.184;18.680;2023-03-01T06:12:37;19.55;;;13.18;;
43457;SDS011;29046;54.184;18.680;2023-03-01T06:15:06;22.98;;;12.35;;
43457;SDS011;29046;54.184;18.680;2023-03-01T06:17:36;22.45;;;13.15;;
43457;SDS011;29046;54.184;18.680;2023-03-01T06:20:05;24.33;;;13.43;;
43457;SDS011;29046;54.184;18.680;2023-03-01T06:22:36;19.20;;;12.48;;
43457;SDS011;29046;54.184;18.680;2023-03-01T06:25:04;23.38;;;13.13;;
43457;SDS011;29046;54.184;18.680;2023-03-01T06:27:32;19.55;;;13.18;;
43457;SDS011;29046;54.184;18.680;2023-03-01T06:29:59;30.30;;;18.55;;
43457;SDS011;29046;54.184;18.680;2023-03-01T06:32:26;92.03;;;52.08;;
43457;SDS011;29046;54.184;18.680;2023-03-01T06:34:53;54.25;;;30.02;;
43457;SDS011;29046;54.184;18.680;2023-03-01T06:37:21;38.75;;;26.48;;
43457;SDS011;29046;54.184;18.680;2023-03-01T06:39:48;29.13;;;19.58;;
43457;SDS011;29046;54.184;18.680;2023-03-01T06:42:15;23.00;;;16.58;;
43457;SDS011;29046;54.184;18.680;2023-03-01T06:44:43;24.60;;;16.10;;
43457;SDS011;29046;54.184;18.680;2023-03-01T06:47:11;31.15;;;18.00;;
43457;SDS011;29046;54.184;18.680;2023-03-01T06:49:38;34.55;;;20.20;;
43457;SDS011;29046;54.184;18.680;2023-03-01T06:52:05;41.13;;;25.15;;
43457;SDS011;29046;54.184;18.680;2023-03-01T06:54:32;37.38;;;23.70;;
43457;SDS011;29046;54.184;18.680;2023-03-01T06:57:00;40.65;;;23.27;;
43457;SDS011;29046;54.184;18.680;2023-03-01T06:59:27;36.40;;;24.27;;
43457;SDS011;29046;54.184;18.680;2023-03-01T07:01:55;42.20;;;27.17;;
43457;SDS011;29046;54.184;18.680;2023-03-01T07:04:22;50.70;;;30.83;;
43457;SDS011;29046;54.184;18.680;2023-03-01T07:06:49;52.22;;;30.80;;
43457;SDS011;29046;54.184;18.680;2023-03-01T07:09:21;40.10;;;25.85;;
43457;SDS011;29046;54.184;18.680;2023-03-01T07:11:49;46.55;;;27.35;;
43457;SDS011;29046;54.184;18.680;2023-03-01T07:14:17;68.30;;;39.45;;
43457;SDS011;29046;54.184;18.680;2023-03-01T07:16:46;79.57;;;46.08;;
43457;SDS011;29046;54.184;18.680;2023-03-01T07:19:13;106.35;;;57.40;;
43457;SDS011;29046;54.184;18.680;2023-03-01T07:21:41;115.38;;;64.07;;
43457;SDS011;29046;54.184;18.680;2023-03-01T07:24:08;142.68;;;79.10;;
43457;SDS011;29046;54.184;18.680;2023-03-01T07:26:35;134.10;;;77.38;;
43457;SDS011;29046;54.184;18.680;2023-03-01T07:29:03;129.18;;;74.45;;
43457;SDS011;29046;54.184;18.680;2023-03-01T07:31:33;78.05;;;46.95;;
43457;SDS011;29046;54.184;18.680;2023-03-01T07:34:00;75.28;;;44.05;;
43457;SDS011;29046;54.184;18.680;2023-03-01T07:36:27;43.53;;;26.98;;
43457;SDS011;29046;54.184;18.680;2023-03-01T07:38:55;42.83;;;27.00;;
43457;SDS011;29046;54.184;18.680;2023-03-01T07:41:22;39.70;;;25.40;;
43457;SDS011;29046;54.184;18.680;2023-03-01T07:43:49;29.85;;;19.73;;
43457;SDS011;29046;54.184;18.680;2023-03-01T07:46:17;32.85;;;20.77;;
43457;SDS011;29046;54.184;18.680;2023-03-01T07:48:45;23.65;;;17.05;;
43457;SDS011;29046;54.184;18.680;2023-03-01T07:51:13;26.35;;;17.25;;
43457;SDS011;29046;54.184;18.680;2023-03-01T07:53:40;31.52;;;18.02;;
43457;SDS011;29046;54.184;18.680;2023-03-01T07:56:08;24.88;;;17.90;;
43457;SDS011;29046;54.184;18.680;2023-03-01T07:58:37;30.85;;;19.90;;
43457;SDS011;29046;54.184;18.680;2023-03-01T08:01:06;24.27;;;16.95;;
43457;SDS011;29046;54.184;18.680;2023-03-01T08:03:35;20.85;;;16.73;;
43457;SDS011;29046;54.184;18.680;2023-03-01T08:06:04;18.67;;;15.73;;
43457;SDS011;29046;54.184;18.680;2023-03-01T08:08:32;21.85;;;15.63;;
43457;SDS011;29046;54.184;18.680;2023-03-01T08:11:00;24.27;;;17.60;;
43457;SDS011;29046;54.184;18.680;2023-03-01T08:13:29;18.00;;;15.68;;
43457;SDS011;29046;54.184;18.680;2023-03-01T08:16:00;25.30;;;17.25;;
43457;SDS011;29046;54.184;18.680;2023-03-01T08:18:29;19.45;;;16.48;;
43457;SDS011;29046;54.184;18.680;2023-03-01T08:21:06;17.58;;;15.63;;
43457;SDS011;29046;54.184;18.680;2023-03-01T08:23:41;18.50;;;15.35;;
43457;SDS011;29046;54.184;18.680;2023-03-01T08:26:10;17.73;;;15.18;;
43457;SDS011;29046;54.184;18.680;2023-03-01T08:28:41;20.33;;;17.05;;
43457;SDS011;29046;54.184;18.680;2023-03-01T08:31:13;24.60;;;18.70;;
43457;SDS011;29046;54.184;18.680;2023-03-01T08:33:42;21.80;;;18.05;;
43457;SDS011;29046;54.184;18.680;2023-03-01T08:36:10;20.55;;;17.02;;
43457;SDS011;29046;54.184;18.680;2023-03-01T08:38:37;31.10;;;21.45;;
43457;SDS011;29046;54.184;18.680;2023-03-01T08:41:04;22.88;;;19.15;;
43457;SDS011;29046;54.184;18.680;2023-03-01T08:43:32;33.35;;;25.98;;
43457;SDS011;29046;54.184;18.680;2023-03-01T08:45:59;29.92;;;26.95;;
43457;SDS011;29046;54.184;18.680;2023-03-01T08:48:27;31.50;;;28.05;;
43457;SDS011;29046;54.184;18.680;2023-03-01T08:50:55;36.28;;;29.25;;
43457;SDS011;29046;54.184;18.680;2023-03-01T08:53:22;26.95;;;22.98;;
43457;SDS011;29046;54.184;18.680;2023-03-01T08:55:52;23.95;;;21.48;;
43457;SDS011;29046;54.184;18.680;2023-03-01T08:58:19;25.63;;;22.38;;
43457;SDS011;29046;54.184;18.680;2023-03-01T09:00:46;24.10;;;21.60;;
43457;SDS011;29046;54.184;18.680;2023-03-01T09:03:13;22.08;;;19.70;;
43457;SDS011;29046;54.184;18.680;2023-03-01T09:05:40;24.35;;;20.60;;
43457;SDS011;29046;54.184;18.680;2023-03-01T09:08:07;24.45;;;21.10;;
43457;SDS011;29046;54.184;18.680;2023-03-01T09:10:37;26.13;;;21.70;;
43457;SDS011;29046;54.184;18.680;2023-03-01T09:13:05;23.38;;;21.05;;
43457;SDS011;29046;54.184;18.680;2023-03-01T09:15:32;24.50;;;22.02;;
43457;SDS011;29046;54.184;18.680;2023-03-01T09:18:00;23.10;;;20.80;;
43457;SDS011;29046;54.184;18.680;2023-03-01T09:20:27;24.67;;;21.02;;
43457;SDS011;29046;54.184;18.680;2023-03-01T09:22:57;24.38;;;22.05;;
43457;SDS011;29046;54.184;18.680;2023-03-01T09:25:25;27.90;;;25.13;;
43457;SDS011;29046;54.184;18.680;2023-03-01T09:27:52;25.55;;;22.95;;
43457;SDS011;29046;54.184;18.680;2023-03-01T09:30:20;25.80;;;23.15;;
43457;SDS011;29046;54.184;18.680;2023-03-01T09:32:48;29.95;;;27.00;;
43457;SDS011;29046;54.184;18.680;2023-03-01T09:35:15;25.08;;;22.67;;
43457;SDS011;29046;54.184;18.680;2023-03-01T09:37:42;22.35;;;20.20;;
43457;SDS011;29046;54.184;18.680;2023-03-01T09:40:12;27.60;;;24.85;;
43457;SDS011;29046;54.184;18.680;2023-03-01T09:45:35;25.25;;;22.95;;
43457;SDS011;29046;54.184;18.680;2023-03-01T09:48:09;24.70;;;22.30;;
43457;SDS011;29046;54.184;18.680;2023-03-01T09:50:43;27.80;;;25.08;;
43457;SDS011;29046;54.184;18.680;2023-03-01T09:53:13;28.10;;;25.48;;
43457;SDS011;29046;54.184;18.680;2023-03-01T09:55:54;27.77;;;25.50;;
43457;SDS011;29046;54.184;18.680;2023-03-01T10:00:56;32.42;;;29.63;;
43457;SDS011;29046;54.184;18.680;2023-03-01T10:03:34;32.80;;;30.35;;
43457;SDS011;29046;54.184;18.680;2023-03-01T10:08:36;32.72;;;30.17;;
43457;SDS011;29046;54.184;18.680;2023-03-01T10:11:12;32.13;;;29.70;;
43457;SDS011;29046;54.184;18.680;2023-03-01T10:16:52;34.13;;;31.50;;
43457;SDS011;29046;54.184;18.680;2023-03-01T10:24:44;37.00;;;33.83;;
43457;SDS011;29046;54.184;18.680;2023-03-01T10:27:23;37.03;;;34.30;;
43457;SDS011;29046;54.184;18.680;2023-03-01T10:32:32;39.17;;;36.15;;
43457;SDS011;29046;54.184;18.680;2023-03-01T10:34:59;39.05;;;35.42;;
43457;SDS011;29046;54.184;18.680;2023-03-01T10:37:27;30.15;;;27.60;;
43457;SDS011;29046;54.184;18.680;2023-03-01T10:40:02;23.75;;;21.70;;
43457;SDS011;29046;54.184;18.680;2023-03-01T10:42:36;21.95;;;19.95;;
43457;SDS011;29046;54.184;18.680;2023-03-01T10:48:12;21.10;;;17.63;;
43457;SDS011;29046;54.184;18.680;2023-03-01T10:50:43;19.30;;;16.77;;
43457;SDS011;29046;54.184;18.680;2023-03-01T10:53:26;27.77;;;20.80;;
43457;SDS011;29046;54.184;18.680;2023-03-01T10:58:25;28.55;;;18.75;;
43457;SDS011;29046;54.184;18.680;2023-03-01T11:03:29;21.45;;;19.20;;
43457;SDS011;29046;54.184;18.680;2023-03-01T11:06:00;22.25;;;19.10;;
43457;SDS011;29046;54.184;18.680;2023-03-01T11:08:31;19.30;;;17.23;;
43457;SDS011;29046;54.184;18.680;2023-03-01T11:13:32;19.30;;;14.90;;
43457;SDS011;29046;54.184;18.680;2023-03-01T11:16:05;18.05;;;14.85;;
43457;SDS011;29046;54.184;18.680;2023-03-01T11:21:14;20.88;;;15.55;;
43457;SDS011;29046;54.184;18.680;2023-03-01T11:23:43;21.65;;;16.63;;
43457;SDS011;29046;54.184;18.680;2023-03-01T11:26:13;19.65;;;16.45;;
43457;SDS011;29046;54.184;18.680;2023-03-01T11:28:42;24.90;;;19.60;;
43457;SDS011;29046;54.184;18.680;2023-03-01T11:31:12;19.55;;;16.90;;
43457;SDS011;29046;54.184;18.680;2023-03-01T11:38:53;20.23;;;17.08;;
43457;SDS011;29046;54.184;18.680;2023-03-01T11:41:25;20.52;;;17.98;;
43457;SDS011;29046;54.184;18.680;2023-03-01T11:43:57;20.80;;;16.60;;
43457;SDS011;29046;54.184;18.680;2023-03-01T11:46:35;20.67;;;17.10;;
43457;SDS011;29046;54.184;18.680;2023-03-01T12:17:29;40.75;;;36.45;;
43457;SDS011;29046;54.184;18.680;2023-03-01T12:20:29;113.25;;;89.13;;
43457;SDS011;29046;54.184;18.680;2023-03-01T12:23:02;72.97;;;44.83;;
43457;SDS011;29046;54.184;18.680;2023-03-01T12:31:44;42.08;;;25.20;;
43457;SDS011;29046;54.184;18.680;2023-03-01T12:42:31;43.47;;;27.13;;
43457;SDS011;29046;54.184;18.680;2023-03-01T12:50:48;32.47;;;22.08;;
43457;SDS011;29046;54.184;18.680;2023-03-01T12:53:25;24.38;;;20.73;;
43457;SDS011;29046;54.184;18.680;2023-03-01T12:56:02;28.08;;;20.42;;
43457;SDS011;29046;54.184;18.680;2023-03-01T12:58:34;25.58;;;20.80;;
43457;SDS011;29046;54.184;18.680;2023-03-01T13:14:50;23.17;;;19.67;;
43457;SDS011;29046;54.184;18.680;2023-03-01T13:17:31;21.30;;;18.95;;
43457;SDS011;29046;54.184;18.680;2023-03-01T13:19:59;20.70;;;18.45;;
43457;SDS011;29046;54.184;18.680;2023-03-01T13:22:32;21.27;;;19.10;;
43457;SDS011;29046;54.184;18.680;2023-03-01T13:25:26;23.77;;;21.08;;
43457;SDS011;29046;54.184;18.680;2023-03-01T13:31:04;23.15;;;20.65;;
43457;SDS011;29046;54.184;18.680;2023-03-01T13:44:11;21.70;;;19.50;;
43457;SDS011;29046;54.184;18.680;2023-03-01T13:46:47;22.70;;;20.27;;
43457;SDS011;29046;54.184;18.680;2023-03-01T13:49:16;21.85;;;19.52;;
43457;SDS011;29046;54.184;18.680;2023-03-01T13:51:47;21.70;;;19.33;;
43457;SDS011;29046;54.184;18.680;2023-03-01T13:54:18;23.35;;;21.05;;
43457;SDS011;29046;54.184;18.680;2023-03-01T13:56:56;21.25;;;18.95;;
43457;SDS011;29046;54.184;18.680;2023-03-01T13:59:26;22.15;;;19.63;;
43457;SDS011;29046;54.184;18.680;2023-03-01T14:01:54;22.23;;;19.35;;
43457;SDS011;29046;54.184;18.680;2023-03-01T14:04:32;21.77;;;19.73;;
43457;SDS011;29046;54.184;18.680;2023-03-01T14:07:21;22.17;;;19.95;;
43457;SDS011;29046;54.184;18.680;2023-03-01T14:09:52;22.48;;;20.10;;
43457;SDS011;29046;54.184;18.680;2023-03-01T14:12:44;21.60;;;19.50;;
43457;SDS011;29046;54.184;18.680;2023-03-01T14:15:36;20.00;;;17.90;;
43457;SDS011;29046;54.184;18.680;2023-03-01T14:18:57;20.30;;;18.30;;
43457;SDS011;29046;54.184;18.680;2023-03-01T14:21:21;24.02;;;21.58;;
43457;SDS011;29046;54.184;18.680;2023-03-01T14:23:49;24.58;;;22.17;;
43457;SDS011;29046;54.184;18.680;2023-03-01T14:26:19;23.20;;;20.70;;
43457;SDS011;29046;54.184;18.680;2023-03-01T14:28:48;23.23;;;20.90;;
43457;SDS011;29046;54.184;18.680;2023-03-01T14:31:35;22.95;;;20.58;;
43457;SDS011;29046;54.184;18.680;2023-03-01T14:34:21;27.17;;;24.40;;
43457;SDS011;29046;54.184;18.680;2023-03-01T14:36:50;35.08;;;31.08;;
43457;SDS011;29046;54.184;18.680;2023-03-01T14:39:23;38.33;;;32.97;;
43457;SDS011;29046;54.184;18.680;2023-03-01T14:41:52;29.52;;;26.73;;
43457;SDS011;29046;54.184;18.680;2023-03-01T14:44:21;33.28;;;29.92;;
43457;SDS011;29046;54.184;18.680;2023-03-01T14:46:52;33.80;;;27.30;;
43457;SDS011;29046;54.184;18.680;2023-03-01T14:49:22;26.17;;;22.63;;
43457;SDS011;29046;54.184;18.680;2023-03-01T14:54:24;25.38;;;23.00;;
43457;SDS011;29046;54.184;18.680;2023-03-01T14:56:57;25.15;;;22.80;;
43457;SDS011;29046;54.184;18.680;2023-03-01T14:59:27;25.40;;;23.23;;
43457;SDS011;29046;54.184;18.680;2023-03-01T15:01:55;27.88;;;25.40;;
43457;SDS011;29046;54.184;18.680;2023-03-01T15:04:24;26.10;;;23.60;;
43457;SDS011;29046;54.184;18.680;2023-03-01T15:06:54;24.27;;;22.02;;
43457;SDS011;29046;54.184;18.680;2023-03-01T15:09:32;22.05;;;19.65;;
43457;SDS011;29046;54.184;18.680;2023-03-01T15:14:55;22.23;;;17.75;;
43457;SDS011;29046;54.184;18.680;2023-03-01T15:17:30;22.63;;;20.08;;
43457;SDS011;29046;54.184;18.680;2023-03-01T15:20:02;22.73;;;20.13;;
43457;SDS011;29046;54.184;18.680;2023-03-01T15:22:32;24.50;;;20.33;;
43457;SDS011;29046;54.184;18.680;2023-03-01T15:25:01;25.65;;;21.63;;
43457;SDS011;29046;54.184;18.680;2023-03-01T15:27:28;25.58;;;22.88;;
43457;SDS011;29046;54.184;18.680;2023-03-01T15:29:57;26.40;;;22.60;;
43457;SDS011;29046;54.184;18.680;2023-03-01T15:32:28;22.83;;;20.60;;
43457;SDS011;29046;54.184;18.680;2023-03-01T15:34:58;59.53;;;47.08;;
43457;SDS011;29046;54.184;18.680;2023-03-01T15:40:25;111.55;;;77.72;;
43457;SDS011;29046;54.184;18.680;2023-03-01T15:43:03;102.03;;;75.95;;
43457;SDS011;29046;54.184;18.680;2023-03-01T15:45:32;48.63;;;35.22;;
43457;SDS011;29046;54.184;18.680;2023-03-01T15:48:02;31.17;;;22.75;;
43457;SDS011;29046;54.184;18.680;2023-03-01T15:50:35;30.73;;;22.98;;
43457;SDS011;29046;54.184;18.680;2023-03-01T15:53:08;35.03;;;24.48;;
43457;SDS011;29046;54.184;18.680;2023-03-01T15:55:38;37.22;;;27.85;;
43457;SDS011;29046;54.184;18.680;2023-03-01T15:58:09;43.08;;;26.65;;
43457;SDS011;29046;54.184;18.680;2023-03-01T16:00:40;37.75;;;25.48;;
43457;SDS011;29046;54.184;18.680;2023-03-01T16:03:25;97.65;;;47.30;;
43457;SDS011;29046;54.184;18.680;2023-03-01T16:05:52;78.55;;;42.78;;
43457;SDS011;29046;54.184;18.680;2023-03-01T16:08:20;124.35;;;55.72;;
43457;SDS011;29046;54.184;18.680;2023-03-01T16:10:48;106.13;;;51.75;;
43457;SDS011;29046;54.184;18.680;2023-03-01T16:13:17;104.25;;;51.28;;
43457;SDS011;29046;54.184;18.680;2023-03-01T16:15:45;68.25;;;38.67;;
43457;SDS011;29046;54.184;18.680;2023-03-01T16:18:13;45.33;;;29.63;;
43457;SDS011;29046;54.184;18.680;2023-03-01T16:20:40;46.78;;;30.30;;
43457;SDS011;29046;54.184;18.680;2023-03-01T16:23:08;34.78;;;24.95;;
43457;SDS011;29046;54.184;18.680;2023-03-01T16:25:37;41.30;;;28.98;;
43457;SDS011;29046;54.184;18.680;2023-03-01T16:28:05;39.08;;;26.38;;
43457;SDS011;29046;54.184;18.680;2023-03-01T16:30:39;62.10;;;38.13;;
43457;SDS011;29046;54.184;18.680;2023-03-01T16:33:07;42.80;;;29.45;;
43457;SDS011;29046;54.184;18.680;2023-03-01T16:35:51;45.15;;;30.75;;
43457;SDS011;29046;54.184;18.680;2023-03-01T16:38:19;42.88;;;28.35;;
43457;SDS011;29046;54.184;18.680;2023-03-01T16:40:47;35.92;;;24.60;;
43457;SDS011;29046;54.184;18.680;2023-03-01T16:43:16;29.80;;;21.65;;